Time;durP1;ratioP1;P1;durP2;ratioP2;P2;SDS_P1;SDS_P2;PMS_P1;PMS_P2;Temp;Humidity;BMP_temperature;BMP_pressure;BME280_temperature;BME280_humidity;BME280_pressure;Samples;Min_cycle;Max_cycle;Signal;HPM_P1;HPM_P2
2022/08/24 00:04:14;;;;;;;3.28;1.88;;;20.30;99.90;;;;;;20819471;28;20037;-81
2022/08/24 00:14:15;;;;;;;2.75;1.70;;;20.20;99.90;;;;;;20778772;28;20033;-81
2022/08/24 00:24:16;;;;;;;3.58;2.00;;;20.10;99.90;;;;;;20777459;28;20037;-81
2022/08/24 00:34:18;;;;;;;3.72;2.03;;;20.00;99.90;;;;;;20800398;28;20471;-81
2022/08/24 00:44:20;;;;;;;2.47;1.65;;;20.00;99.90;;;;;;20823254;28;20052;-81
2022/08/24 00:54:25;;;;;;;2.38;1.40;;;19.90;99.90;;;;;;20835771;28;20500;-81
2022/08/24 01:04:34;;;;;;;3.58;1.80;;;19.80;99.90;;;;;;20798169;28;20551;-80
2022/08/24 01:14:36;;;;;;;3.50;1.58;;;19.80;99.90;;;;;;20805896;28;20034;-80
2022/08/24 01:24:38;;;;;;;2.17;1.50;;;19.80;99.90;;;;;;20808826;28;20032;-80
2022/08/24 01:34:39;;;;;;;3.80;1.38;;;19.70;99.90;;;;;;20812363;28;20095;-80
2022/08/24 01:44:42;;;;;;;3.47;1.05;;;19.60;99.90;;;;;;20827145;28;20041;-80
2022/08/24 01:54:44;;;;;;;2.65;1.33;;;19.50;99.90;;;;;;20817322;28;20033;-80
2022/08/24 02:04:45;;;;;;;2.65;1.48;;;19.40;99.90;;;;;;20844140;28;20030;-80
2022/08/24 02:14:46;;;;;;;4.97;1.77;;;19.40;99.90;;;;;;20835808;28;20034;-80
2022/08/24 02:24:47;;;;;;;3.53;2.10;;;19.30;99.90;;;;;;20833272;28;20033;-80
2022/08/24 02:34:48;;;;;;;3.50;1.65;;;19.30;99.90;;;;;;20828026;28;20033;-80
2022/08/24 02:44:49;;;;;;;4.05;1.58;;;19.20;99.90;;;;;;20804552;28;20504;-81
2022/08/24 02:54:50;;;;;;;2.38;1.35;;;19.20;99.90;;;;;;20815464;28;20511;-80
2022/08/24 03:04:52;;;;;;;4.45;2.30;;;19.20;99.90;;;;;;20817026;28;20041;-80
2022/08/24 03:14:53;;;;;;;3.30;1.60;;;19.10;99.90;;;;;;20805034;28;20033;-80
2022/08/24 03:24:55;;;;;;;4.15;2.30;;;19.10;99.90;;;;;;20802850;28;20522;-81
2022/08/24 03:34:56;;;;;;;4.57;2.08;;;19.00;99.90;;;;;;20804850;28;20713;-80
2022/08/24 03:44:57;;;;;;;6.47;2.97;;;18.90;99.90;;;;;;20812809;28;20045;-81
2022/08/24 03:54:58;;;;;;;5.47;2.50;;;18.90;99.90;;;;;;20799081;28;20025;-81
2022/08/24 04:04:59;;;;;;;4.78;2.70;;;18.80;99.90;;;;;;20808429;28;20034;-80
2022/08/24 04:15:00;;;;;;;3.60;2.30;;;18.80;99.90;;;;;;20825888;28;20032;-81
2022/08/24 04:25:02;;;;;;;5.07;2.80;;;18.80;99.90;;;;;;20822363;28;20381;-81
2022/08/24 04:35:04;;;;;;;5.03;3.13;;;18.80;99.90;;;;;;20828642;28;20099;-80
2022/08/24 04:45:05;;;;;;;9.20;2.92;;;18.80;99.90;;;;;;20834432;28;20041;-80
2022/08/24 04:55:07;;;;;;;6.50;3.38;;;18.80;99.90;;;;;;20842362;28;20041;-80
2022/08/24 05:05:09;;;;;;;8.55;3.72;;;18.80;99.90;;;;;;20847389;28;20040;-80
2022/08/24 05:15:11;;;;;;;4.70;3.17;;;18.70;99.90;;;;;;20872002;28;20037;-80
2022/08/24 05:25:13;;;;;;;9.90;4.60;;;18.70;99.90;;;;;;20824861;28;20026;-80
2022/08/24 05:35:14;;;;;;;8.05;3.75;;;18.80;99.90;;;;;;20838843;28;20492;-80
2022/08/24 05:45:17;;;;;;;6.75;3.55;;;18.90;99.90;;;;;;20836183;28;20096;-80
2022/08/24 05:55:18;;;;;;;10.15;5.57;;;19.20;99.90;;;;;;20821545;28;20029;-80
2022/08/24 06:05:19;;;;;;;10.57;4.82;;;19.70;99.90;;;;;;20840601;28;20037;-80
2022/08/24 06:15:20;;;;;;;9.30;5.15;;;20.20;99.90;;;;;;20812711;28;20042;-80
2022/08/24 06:35:41;;;;;;;5.45;3.05;;;20.70;99.90;;;;;;20834927;28;20594;-80
2022/08/24 06:45:42;;;;;;;8.93;4.38;;;21.00;99.90;;;;;;20813945;28;20492;-80
2022/08/24 06:55:56;;;;;;;4.32;2.15;;;21.20;99.90;;;;;;20796125;28;20399;-80
2022/08/24 07:05:58;;;;;;;6.78;4.00;;;21.70;99.90;;;;;;20825615;28;20034;-80
2022/08/24 07:16:00;;;;;;;5.00;2.75;;;22.10;99.90;;;;;;20795047;28;20027;-80
2022/08/24 07:26:10;;;;;;;3.30;1.90;;;22.30;99.90;;;;;;20831673;28;20037;-79
2022/08/24 07:36:13;;;;;;;3.53;1.45;;;22.50;99.90;;;;;;20794348;28;21956;-79
2022/08/24 07:46:14;;;;;;;5.25;2.83;;;22.70;99.90;;;;;;20807151;28;20029;-79
2022/08/24 07:56:15;;;;;;;3.90;2.15;;;22.90;99.90;;;;;;20808444;28;20120;-79
2022/08/24 08:06:18;;;;;;;4.50;1.50;;;23.20;99.90;;;;;;20851637;28;20049;-80
2022/08/24 08:16:20;;;;;;;4.35;1.95;;;23.50;99.90;;;;;;20822757;28;20029;-80
2022/08/24 08:26:21;;;;;;;4.32;2.00;;;23.80;99.90;;;;;;20839628;28;20047;-80
2022/08/24 08:36:22;;;;;;;3.33;1.63;;;24.10;99.90;;;;;;20810600;28;20551;-79
2022/08/24 08:47:19;;;;;;;2.97;1.27;;;24.30;99.90;;;;;;20842802;28;20048;-79
2022/08/24 08:57:56;;;;;;;1.50;0.95;;;24.70;99.90;;;;;;20774413;28;20723;-79
2022/08/24 09:08:17;;;;;;;3.28;1.15;;;25.20;99.90;;;;;;20855672;28;20087;-80
2022/08/24 09:18:29;;;;;;;2.38;1.17;;;25.70;99.90;;;;;;20873091;28;20745;-80
2022/08/24 09:28:58;;;;;;;0.98;0.40;;;26.00;99.90;;;;;;20862658;28;20423;-79
2022/08/24 09:39:33;;;;;;;1.88;0.98;;;26.40;99.90;;;;;;20809845;28;20099;-80
2022/08/24 09:50:15;;;;;;;0.80;0.35;;;26.80;99.90;;;;;;20820381;28;20761;-79
2022/08/24 10:00:23;;;;;;;2.00;0.80;;;27.00;99.90;;;;;;20826600;28;21708;-80
2022/08/24 10:10:43;;;;;;;1.40;0.95;;;27.20;99.90;;;;;;20860020;28;20033;-80
2022/08/24 10:21:07;;;;;;;1.40;0.68;;;27.50;99.90;;;;;;20828364;28;20033;-79
2022/08/24 10:31:13;;;;;;;1.25;0.50;;;28.00;99.90;;;;;;20827009;28;20553;-79
2022/08/24 10:41:46;;;;;;;1.80;0.93;;;28.30;99.90;;;;;;20809522;28;20046;-79
2022/08/24 10:52:16;;;;;;;0.95;0.50;;;28.60;99.90;;;;;;20812796;28;20029;-79
2022/08/24 11:02:35;;;;;;;1.75;0.65;;;28.70;99.90;;;;;;20810404;28;20846;-79
2022/08/24 11:12:41;;;;;;;1.05;0.40;;;28.50;99.90;;;;;;20805203;28;20036;-80
2022/08/24 11:23:06;;;;;;;2.43;0.50;;;28.10;99.90;;;;;;20795679;28;20437;-80
2022/08/24 11:33:28;;;;;;;1.13;0.40;;;28.10;99.90;;;;;;20804160;28;20050;-80
2022/08/24 11:43:51;;;;;;;1.13;0.45;;;28.40;99.90;;;;;;20809935;28;20049;-80
2022/08/24 11:53:58;;;;;;;1.10;0.30;;;28.90;99.90;;;;;;20803671;28;20025;-80
2022/08/24 12:04:22;;;;;;;0.50;0.22;;;28.30;99.90;;;;;;20804680;28;20029;-79
2022/08/24 12:14:45;;;;;;;0.90;0.30;;;28.70;99.90;;;;;;20819487;28;20104;-79
2022/08/24 12:24:50;;;;;;;0.40;0.20;;;28.90;99.90;;;;;;20823687;28;20030;-79
2022/08/24 12:35:04;;;;;;;0.40;0.13;;;28.70;99.90;;;;;;20843624;28;20069;-79
2022/08/24 12:45:10;;;;;;;0.82;0.20;;;28.40;99.90;;;;;;20859983;28;20913;-79
2022/08/24 12:55:40;;;;;;;2.27;0.20;;;28.10;99.90;;;;;;20829380;28;20032;-80
2022/08/24 13:05:47;;;;;;;0.52;0.20;;;28.30;99.90;;;;;;20827990;28;20029;-80
2022/08/24 13:15:54;;;;;;;0.70;0.32;;;28.50;99.90;;;;;;20831013;28;20027;-80
2022/08/24 13:25:58;;;;;;;0.68;0.30;;;28.50;99.90;;;;;;20833349;28;20436;-80
2022/08/24 13:36:06;;;;;;;0.60;0.38;;;28.80;99.90;;;;;;20850216;28;20079;-80
2022/08/24 13:46:16;;;;;;;0.40;0.13;;;28.90;99.90;;;;;;20878222;28;20492;-80
2022/08/24 13:56:24;;;;;;;0.30;0.10;;;28.30;99.90;;;;;;20840215;28;20594;-80
2022/08/24 14:06:34;;;;;;;0.88;0.25;;;28.00;99.90;;;;;;20840335;28;20038;-80
2022/08/24 14:27:27;;;;;;;1.25;0.40;;;27.80;99.90;;;;;;20839225;28;20038;-80
2022/08/24 14:38:06;;;;;;;0.50;0.20;;;28.00;99.90;;;;;;20841496;28;20543;-80
2022/08/24 14:48:26;;;;;;;0.50;0.22;;;28.10;99.90;;;;;;20833004;28;20501;-80
2022/08/24 14:58:58;;;;;;;0.98;0.30;;;28.00;99.90;;;;;;20806348;28;20099;-80
2022/08/24 15:09:19;;;;;;;0.98;0.30;;;28.40;99.90;;;;;;20808413;28;20034;-80
2022/08/24 15:19:20;;;;;;;0.85;0.47;;;28.50;99.90;;;;;;20818655;28;20046;-80
2022/08/24 15:29:25;;;;;;;1.08;0.40;;;28.00;99.90;;;;;;20818959;28;20084;-80
2022/08/24 15:39:27;;;;;;;0.90;0.38;;;27.60;99.90;;;;;;20823630;28;20046;-80
2022/08/24 15:49:49;;;;;;;0.32;0.20;;;27.90;99.90;;;;;;20822540;28;20654;-80
2022/08/24 15:59:53;;;;;;;0.77;0.30;;;28.20;99.90;;;;;;20807754;28;20050;-80
2022/08/24 16:10:09;;;;;;;0.43;0.22;;;28.20;99.90;;;;;;20817600;28;20080;-80
2022/08/24 16:20:29;;;;;;;0.50;0.20;;;28.20;99.90;;;;;;20813102;28;20567;-80
2022/08/24 16:30:54;;;;;;;0.77;0.30;;;28.00;99.90;;;;;;20817009;28;20051;-80
2022/08/24 16:41:05;;;;;;;0.98;0.40;;;27.90;99.90;;;;;;20815514;28;20051;-80
2022/08/24 16:51:06;;;;;;;1.23;0.35;;;27.60;99.90;;;;;;20850706;28;20627;-80
2022/08/24 17:01:07;;;;;;;1.13;0.45;;;27.40;99.90;;;;;;20826264;28;20627;-80
2022/08/24 17:11:09;;;;;;;1.80;0.30;;;27.20;99.90;;;;;;20821021;28;20045;-80
2022/08/24 17:21:10;;;;;;;0.75;0.30;;;26.80;99.90;;;;;;20827912;28;20060;-80
2022/08/24 17:31:11;;;;;;;2.20;0.50;;;26.60;99.90;;;;;;20831635;28;20078;-80
2022/08/24 17:41:13;;;;;;;1.42;0.50;;;26.40;99.90;;;;;;20837314;28;20100;-80
2022/08/24 17:51:15;;;;;;;0.98;0.60;;;26.20;99.90;;;;;;20830864;28;20038;-80
2022/08/24 18:01:17;;;;;;;2.83;0.70;;;25.90;99.90;;;;;;20853218;28;20037;-80
2022/08/24 18:11:18;;;;;;;1.10;0.68;;;25.70;99.90;;;;;;20826276;28;20025;-80
2022/08/24 18:21:19;;;;;;;0.82;0.57;;;25.50;99.90;;;;;;20786529;28;20040;-80
2022/08/24 18:31:23;;;;;;;2.40;0.75;;;25.30;99.90;;;;;;20810685;28;20111;-80
2022/08/24 18:41:30;;;;;;;0.82;0.40;;;25.20;99.90;;;;;;20792062;28;20050;-81
2022/08/24 18:51:37;;;;;;;0.73;0.30;;;25.10;99.90;;;;;;20801650;28;20079;-81
2022/08/24 19:11:57;;;;;;;1.50;0.30;;;24.80;99.90;;;;;;20827230;28;20030;-81
2022/08/24 19:22:00;;;;;;;1.25;0.40;;;24.60;99.90;;;;;;20779399;28;20483;-81
2022/08/24 19:32:02;;;;;;;1.55;0.55;;;24.40;99.90;;;;;;20814502;28;20512;-81
2022/08/24 19:42:03;;;;;;;1.40;0.55;;;24.30;99.90;;;;;;20818409;28;20052;-81
2022/08/24 19:52:04;;;;;;;1.08;0.70;;;24.10;99.90;;;;;;20786524;28;20026;-81
2022/08/24 20:02:06;;;;;;;0.95;0.50;;;24.00;99.90;;;;;;20787579;28;20041;-80
2022/08/24 20:12:07;;;;;;;1.35;0.60;;;24.00;99.90;;;;;;20785629;28;20030;-81
2022/08/24 20:22:09;;;;;;;1.13;0.47;;;23.90;99.90;;;;;;20785692;28;20470;-81
2022/08/24 20:32:10;;;;;;;1.13;0.50;;;23.80;99.90;;;;;;20806263;28;20611;-81
2022/08/24 20:42:11;;;;;;;1.00;0.40;;;23.70;99.90;;;;;;20789599;28;20045;-81
2022/08/24 20:52:13;;;;;;;0.82;0.32;;;23.70;99.90;;;;;;20803644;28;20052;-81
2022/08/24 21:02:14;;;;;;;1.00;0.22;;;23.60;99.90;;;;;;20871127;28;20025;-81
2022/08/24 21:12:15;;;;;;;1.15;0.73;;;23.60;99.90;;;;;;20847006;28;20036;-81
2022/08/24 21:22:16;;;;;;;2.63;1.33;;;23.50;99.90;;;;;;20827042;28;20060;-81
2022/08/24 21:42:37;;;;;;;0.68;0.38;;;23.40;99.90;;;;;;20830344;28;20382;-81
2022/08/24 21:52:39;;;;;;;2.00;1.15;;;23.30;99.90;;;;;;20820906;28;20037;-80
2022/08/24 22:02:40;;;;;;;1.45;0.68;;;23.20;99.90;;;;;;20812179;28;20033;-81
2022/08/24 22:12:42;;;;;;;3.22;0.90;;;23.20;99.90;;;;;;20784037;28;20386;-81
2022/08/24 22:22:43;;;;;;;5.47;1.00;;;23.10;99.90;;;;;;20785775;28;20037;-81
2022/08/24 22:32:45;;;;;;;3.13;1.08;;;23.10;99.90;;;;;;20822837;28;20034;-81
2022/08/24 22:42:46;;;;;;;2.22;0.90;;;23.10;99.90;;;;;;20792914;28;20046;-81
2022/08/24 22:52:47;;;;;;;2.60;1.02;;;23.20;99.90;;;;;;20819744;28;20037;-81
2022/08/24 23:02:48;;;;;;;2.70;1.25;;;23.10;99.90;;;;;;20810775;28;20025;-81
2022/08/24 23:12:49;;;;;;;4.20;2.17;;;23.10;99.90;;;;;;20817249;28;20044;-81
2022/08/24 23:22:50;;;;;;;2.67;1.65;;;23.00;99.90;;;;;;20815883;28;20037;-80
2022/08/24 23:32:51;;;;;;;9.40;1.35;;;22.90;99.90;;;;;;20806939;28;20040;-81
2022/08/24 23:42:52;;;;;;;2.92;1.65;;;22.70;99.90;;;;;;20715292;28;20058;-81
2022/08/24 23:52:53;;;;;;;2.72;1.55;;;22.60;99.90;;;;;;20723815;28;20025;-81
